York Beach, Maine
Current Conditions -  °F | °C
As of 11:58 AM on Tuesday 21 Oct 2014 (Local Time) from KPSM Reporting Station
Rain Showers Rain Showers  
Wind Chill: 56°   Ceiling: 1000
Heat Index: 56°   Visibility: 10mi
Dew Point: 52°   Wind: 6mph
Humidity: 85%   Direction: 40°NE
Pressure: 29.97"   Gusts: NA
Location:  43.17°N, 70.61°W
Report Text: KPSM 211558Z 04005KT 10SM VCSH OVC010 14/11 A2997 RMK AO2A SLP152 T01350111
Loading
Personal Weather Stations






























Interactive Weather Map
Tropical Storm Tracking
New forecast layout! Learn more

10-Day Weather Forecast

Advertisements
Track Severe Weather on mobile